sensor_id;sensor_type;location;lat;lon;timestamp;P1;durP1;ratioP1;P2;durP2;ratioP2
76631;SDS011;65526;48.578;-4.520;2023-06-22T00:02:21;15.70;;;6.85;;
76631;SDS011;65526;48.578;-4.520;2023-06-22T00:04:48;9.55;;;5.38;;
76631;SDS011;65526;48.578;-4.520;2023-06-22T00:07:14;19.25;;;5.80;;
76631;SDS011;65526;48.578;-4.520;2023-06-22T00:09:41;9.00;;;4.75;;
76631;SDS011;65526;48.578;-4.520;2023-06-22T00:12:07;10.88;;;5.38;;
76631;SDS011;65526;48.578;-4.520;2023-06-22T00:14:34;9.80;;;5.03;;
76631;SDS011;65526;48.578;-4.520;2023-06-22T00:17:00;12.55;;;6.07;;
76631;SDS011;65526;48.578;-4.520;2023-06-22T00:19:27;9.38;;;5.50;;
76631;SDS011;65526;48.578;-4.520;2023-06-22T00:21:53;10.57;;;5.53;;
76631;SDS011;65526;48.578;-4.520;2023-06-22T00:24:20;13.20;;;6.03;;
76631;SDS011;65526;48.578;-4.520;2023-06-22T00:26:50;12.40;;;5.63;;
76631;SDS011;65526;48.578;-4.520;2023-06-22T00:29:16;12.32;;;6.30;;
76631;SDS011;65526;48.578;-4.520;2023-06-22T00:31:44;9.15;;;4.95;;
76631;SDS011;65526;48.578;-4.520;2023-06-22T00:34:10;8.70;;;5.25;;
76631;SDS011;65526;48.578;-4.520;2023-06-22T00:36:37;10.90;;;5.32;;
76631;SDS011;65526;48.578;-4.520;2023-06-22T00:41:33;9.90;;;5.47;;
76631;SDS011;65526;48.578;-4.520;2023-06-22T00:44:00;11.02;;;5.50;;
76631;SDS011;65526;48.578;-4.520;2023-06-22T00:46:26;9.98;;;5.63;;
76631;SDS011;65526;48.578;-4.520;2023-06-22T00:48:53;10.63;;;5.47;;
76631;SDS011;65526;48.578;-4.520;2023-06-22T00:51:23;9.75;;;5.03;;
76631;SDS011;65526;48.578;-4.520;2023-06-22T00:53:50;10.90;;;5.80;;
76631;SDS011;65526;48.578;-4.520;2023-06-22T00:56:19;11.05;;;5.65;;
76631;SDS011;65526;48.578;-4.520;2023-06-22T00:58:50;14.48;;;7.45;;
76631;SDS011;65526;48.578;-4.520;2023-06-22T01:01:18;11.10;;;5.88;;
76631;SDS011;65526;48.578;-4.520;2023-06-22T01:03:49;13.10;;;5.90;;
76631;SDS011;65526;48.578;-4.520;2023-06-22T01:06:18;10.18;;;5.80;;
76631;SDS011;65526;48.578;-4.520;2023-06-22T01:08:57;8.93;;;4.72;;
76631;SDS011;65526;48.578;-4.520;2023-06-22T01:11:35;8.35;;;5.63;;
76631;SDS011;65526;48.578;-4.520;2023-06-22T01:14:06;10.45;;;5.28;;
76631;SDS011;65526;48.578;-4.520;2023-06-22T01:16:49;7.72;;;4.22;;
76631;SDS011;65526;48.578;-4.520;2023-06-22T01:20:01;10.63;;;4.70;;
76631;SDS011;65526;48.578;-4.520;2023-06-22T01:22:16;9.23;;;5.40;;
76631;SDS011;65526;48.578;-4.520;2023-06-22T01:27:33;7.15;;;4.60;;
76631;SDS011;65526;48.578;-4.520;2023-06-22T01:30:13;22.42;;;7.47;;
76631;SDS011;65526;48.578;-4.520;2023-06-22T01:32:42;15.18;;;6.57;;
76631;SDS011;65526;48.578;-4.520;2023-06-22T01:35:09;10.23;;;5.10;;
76631;SDS011;65526;48.578;-4.520;2023-06-22T01:37:37;10.23;;;5.63;;
76631;SDS011;65526;48.578;-4.520;2023-06-22T01:40:05;9.25;;;5.88;;
76631;SDS011;65526;48.578;-4.520;2023-06-22T01:42:34;10.88;;;6.18;;
76631;SDS011;65526;48.578;-4.520;2023-06-22T01:45:02;7.45;;;5.00;;
76631;SDS011;65526;48.578;-4.520;2023-06-22T01:47:30;13.80;;;5.80;;
76631;SDS011;65526;48.578;-4.520;2023-06-22T01:49:57;11.60;;;4.68;;
76631;SDS011;65526;48.578;-4.520;2023-06-22T01:52:24;11.07;;;4.75;;
76631;SDS011;65526;48.578;-4.520;2023-06-22T01:54:50;7.22;;;5.07;;
76631;SDS011;65526;48.578;-4.520;2023-06-22T01:57:18;10.95;;;5.18;;
76631;SDS011;65526;48.578;-4.520;2023-06-22T02:05:16;7.75;;;4.32;;
76631;SDS011;65526;48.578;-4.520;2023-06-22T02:07:46;6.18;;;3.45;;
76631;SDS011;65526;48.578;-4.520;2023-06-22T02:10:19;6.88;;;4.20;;
76631;SDS011;65526;48.578;-4.520;2023-06-22T02:12:46;12.43;;;5.85;;
76631;SDS011;65526;48.578;-4.520;2023-06-22T02:15:14;13.15;;;6.05;;
76631;SDS011;65526;48.578;-4.520;2023-06-22T02:17:42;12.50;;;5.88;;
76631;SDS011;65526;48.578;-4.520;2023-06-22T02:20:14;13.40;;;5.93;;
76631;SDS011;65526;48.578;-4.520;2023-06-22T02:22:41;13.73;;;5.57;;
76631;SDS011;65526;48.578;-4.520;2023-06-22T02:25:10;13.32;;;5.68;;
76631;SDS011;65526;48.578;-4.520;2023-06-22T02:27:37;12.27;;;6.22;;
76631;SDS011;65526;48.578;-4.520;2023-06-22T02:30:07;8.55;;;5.47;;
76631;SDS011;65526;48.578;-4.520;2023-06-22T02:32:35;7.03;;;4.93;;
76631;SDS011;65526;48.578;-4.520;2023-06-22T02:35:02;9.45;;;5.00;;
76631;SDS011;65526;48.578;-4.520;2023-06-22T02:37:30;19.33;;;7.70;;
76631;SDS011;65526;48.578;-4.520;2023-06-22T02:39:57;14.00;;;7.53;;
76631;SDS011;65526;48.578;-4.520;2023-06-22T02:42:24;13.43;;;6.95;;
76631;SDS011;65526;48.578;-4.520;2023-06-22T02:44:50;14.73;;;6.60;;
76631;SDS011;65526;48.578;-4.520;2023-06-22T02:49:46;16.60;;;7.80;;
76631;SDS011;65526;48.578;-4.520;2023-06-22T02:52:13;14.25;;;6.95;;
76631;SDS011;65526;48.578;-4.520;2023-06-22T02:54:39;13.65;;;5.63;;
76631;SDS011;65526;48.578;-4.520;2023-06-22T02:57:06;14.63;;;5.50;;
76631;SDS011;65526;48.578;-4.520;2023-06-22T02:59:32;9.02;;;4.95;;
76631;SDS011;65526;48.578;-4.520;2023-06-22T03:02:05;10.18;;;5.68;;
76631;SDS011;65526;48.578;-4.520;2023-06-22T03:04:32;12.27;;;5.85;;
76631;SDS011;65526;48.578;-4.520;2023-06-22T03:06:59;12.07;;;5.40;;
76631;SDS011;65526;48.578;-4.520;2023-06-22T03:09:28;11.38;;;6.53;;
76631;SDS011;65526;48.578;-4.520;2023-06-22T03:11:56;10.85;;;5.60;;
76631;SDS011;65526;48.578;-4.520;2023-06-22T03:14:27;22.95;;;6.32;;
76631;SDS011;65526;48.578;-4.520;2023-06-22T03:16:53;16.05;;;6.03;;
76631;SDS011;65526;48.578;-4.520;2023-06-22T03:19:20;22.80;;;7.45;;
76631;SDS011;65526;48.578;-4.520;2023-06-22T03:21:48;35.33;;;6.55;;
76631;SDS011;65526;48.578;-4.520;2023-06-22T03:24:14;35.40;;;7.30;;
76631;SDS011;65526;48.578;-4.520;2023-06-22T03:26:41;37.40;;;7.38;;
76631;SDS011;65526;48.578;-4.520;2023-06-22T03:29:07;20.20;;;6.57;;
76631;SDS011;65526;48.578;-4.520;2023-06-22T03:31:34;16.40;;;5.90;;
76631;SDS011;65526;48.578;-4.520;2023-06-22T03:34:01;23.60;;;6.40;;
76631;SDS011;65526;48.578;-4.520;2023-06-22T03:36:27;12.63;;;6.20;;
76631;SDS011;65526;48.578;-4.520;2023-06-22T03:38:54;13.88;;;7.28;;
76631;SDS011;65526;48.578;-4.520;2023-06-22T03:41:20;52.45;;;8.73;;
76631;SDS011;65526;48.578;-4.520;2023-06-22T03:43:48;28.30;;;6.75;;
76631;SDS011;65526;48.578;-4.520;2023-06-22T03:46:14;49.35;;;7.85;;
76631;SDS011;65526;48.578;-4.520;2023-06-22T03:48:42;20.60;;;7.20;;
76631;SDS011;65526;48.578;-4.520;2023-06-22T03:51:08;12.43;;;6.45;;
76631;SDS011;65526;48.578;-4.520;2023-06-22T03:53:35;31.50;;;7.75;;
76631;SDS011;65526;48.578;-4.520;2023-06-22T03:56:01;84.13;;;8.60;;
76631;SDS011;65526;48.578;-4.520;2023-06-22T03:58:28;85.25;;;9.07;;
76631;SDS011;65526;48.578;-4.520;2023-06-22T04:00:58;81.95;;;9.13;;
76631;SDS011;65526;48.578;-4.520;2023-06-22T04:03:25;71.45;;;8.90;;
76631;SDS011;65526;48.578;-4.520;2023-06-22T04:05:52;146.38;;;12.25;;
76631;SDS011;65526;48.578;-4.520;2023-06-22T04:08:18;180.68;;;11.65;;
76631;SDS011;65526;48.578;-4.520;2023-06-22T04:10:45;184.38;;;12.55;;
76631;SDS011;65526;48.578;-4.520;2023-06-22T04:13:11;35.38;;;7.85;;
76631;SDS011;65526;48.578;-4.520;2023-06-22T04:15:38;14.27;;;6.65;;
76631;SDS011;65526;48.578;-4.520;2023-06-22T04:18:04;9.45;;;5.57;;
76631;SDS011;65526;48.578;-4.520;2023-06-22T04:20:31;14.27;;;5.93;;
76631;SDS011;65526;48.578;-4.520;2023-06-22T04:22:57;51.80;;;7.90;;
76631;SDS011;65526;48.578;-4.520;2023-06-22T04:25:24;35.05;;;6.40;;
76631;SDS011;65526;48.578;-4.520;2023-06-22T04:27:50;38.67;;;6.80;;
76631;SDS011;65526;48.578;-4.520;2023-06-22T04:30:17;35.83;;;7.07;;
76631;SDS011;65526;48.578;-4.520;2023-06-22T04:32:44;49.88;;;6.50;;
76631;SDS011;65526;48.578;-4.520;2023-06-22T04:35:11;58.13;;;6.75;;
76631;SDS011;65526;48.578;-4.520;2023-06-22T04:37:37;54.55;;;7.78;;
76631;SDS011;65526;48.578;-4.520;2023-06-22T04:40:05;73.55;;;7.25;;
76631;SDS011;65526;48.578;-4.520;2023-06-22T04:42:33;54.13;;;6.75;;
76631;SDS011;65526;48.578;-4.520;2023-06-22T04:45:00;32.92;;;5.47;;
76631;SDS011;65526;48.578;-4.520;2023-06-22T04:47:27;34.50;;;5.53;;
76631;SDS011;65526;48.578;-4.520;2023-06-22T04:49:53;98.97;;;7.57;;
76631;SDS011;65526;48.578;-4.520;2023-06-22T04:52:20;59.78;;;6.22;;
76631;SDS011;65526;48.578;-4.520;2023-06-22T04:54:46;37.80;;;6.30;;
76631;SDS011;65526;48.578;-4.520;2023-06-22T04:57:21;17.77;;;5.45;;
76631;SDS011;65526;48.578;-4.520;2023-06-22T04:59:58;36.17;;;5.80;;
76631;SDS011;65526;48.578;-4.520;2023-06-22T05:02:37;50.25;;;5.90;;
76631;SDS011;65526;48.578;-4.520;2023-06-22T05:05:07;46.30;;;5.85;;
76631;SDS011;65526;48.578;-4.520;2023-06-22T05:07:34;24.67;;;5.10;;
76631;SDS011;65526;48.578;-4.520;2023-06-22T05:10:01;27.15;;;5.18;;
76631;SDS011;65526;48.578;-4.520;2023-06-22T05:12:29;16.83;;;5.05;;
76631;SDS011;65526;48.578;-4.520;2023-06-22T05:14:56;16.17;;;4.97;;
76631;SDS011;65526;48.578;-4.520;2023-06-22T05:17:23;24.38;;;5.03;;
76631;SDS011;65526;48.578;-4.520;2023-06-22T05:19:49;20.02;;;4.43;;
76631;SDS011;65526;48.578;-4.520;2023-06-22T05:22:16;14.63;;;3.95;;
76631;SDS011;65526;48.578;-4.520;2023-06-22T05:24:43;9.80;;;4.70;;
76631;SDS011;65526;48.578;-4.520;2023-06-22T05:27:10;9.30;;;4.22;;
76631;SDS011;65526;48.578;-4.520;2023-06-22T05:29:36;11.30;;;4.47;;
76631;SDS011;65526;48.578;-4.520;2023-06-22T05:32:03;8.13;;;4.45;;
76631;SDS011;65526;48.578;-4.520;2023-06-22T05:34:30;9.23;;;3.92;;
76631;SDS011;65526;48.578;-4.520;2023-06-22T05:36:56;9.65;;;4.78;;
76631;SDS011;65526;48.578;-4.520;2023-06-22T05:39:24;26.38;;;4.93;;
76631;SDS011;65526;48.578;-4.520;2023-06-22T05:41:54;11.95;;;4.70;;
76631;SDS011;65526;48.578;-4.520;2023-06-22T05:44:20;9.95;;;5.00;;
76631;SDS011;65526;48.578;-4.520;2023-06-22T05:46:47;17.83;;;5.93;;
76631;SDS011;65526;48.578;-4.520;2023-06-22T05:49:14;18.65;;;5.47;;
76631;SDS011;65526;48.578;-4.520;2023-06-22T05:51:41;12.18;;;5.82;;
76631;SDS011;65526;48.578;-4.520;2023-06-22T05:54:08;15.52;;;4.82;;
76631;SDS011;65526;48.578;-4.520;2023-06-22T05:56:34;32.50;;;5.30;;
76631;SDS011;65526;48.578;-4.520;2023-06-22T05:59:01;29.50;;;5.68;;
76631;SDS011;65526;48.578;-4.520;2023-06-22T06:01:27;25.50;;;6.38;;
76631;SDS011;65526;48.578;-4.520;2023-06-22T06:03:54;42.63;;;6.43;;
76631;SDS011;65526;48.578;-4.520;2023-06-22T06:06:20;18.15;;;5.68;;
76631;SDS011;65526;48.578;-4.520;2023-06-22T06:08:48;31.60;;;6.70;;
76631;SDS011;65526;48.578;-4.520;2023-06-22T06:11:14;40.88;;;6.75;;
76631;SDS011;65526;48.578;-4.520;2023-06-22T06:13:41;51.50;;;7.45;;
76631;SDS011;65526;48.578;-4.520;2023-06-22T06:16:07;23.30;;;6.82;;
76631;SDS011;65526;48.578;-4.520;2023-06-22T06:18:34;13.02;;;6.43;;
76631;SDS011;65526;48.578;-4.520;2023-06-22T06:21:00;18.98;;;6.65;;
76631;SDS011;65526;48.578;-4.520;2023-06-22T06:23:26;37.78;;;8.02;;
76631;SDS011;65526;48.578;-4.520;2023-06-22T06:25:53;19.35;;;8.30;;
76631;SDS011;65526;48.578;-4.520;2023-06-22T06:28:20;19.67;;;7.30;;
76631;SDS011;65526;48.578;-4.520;2023-06-22T06:30:46;18.52;;;7.85;;
76631;SDS011;65526;48.578;-4.520;2023-06-22T06:33:13;16.23;;;7.13;;
76631;SDS011;65526;48.578;-4.520;2023-06-22T06:35:39;14.77;;;6.47;;
76631;SDS011;65526;48.578;-4.520;2023-06-22T06:38:06;16.48;;;6.95;;
76631;SDS011;65526;48.578;-4.520;2023-06-22T06:40:32;16.83;;;8.13;;
76631;SDS011;65526;48.578;-4.520;2023-06-22T06:42:58;16.67;;;7.80;;
76631;SDS011;65526;48.578;-4.520;2023-06-22T06:45:27;15.57;;;7.60;;
76631;SDS011;65526;48.578;-4.520;2023-06-22T06:47:54;18.30;;;9.52;;
76631;SDS011;65526;48.578;-4.520;2023-06-22T06:50:20;19.80;;;8.85;;
76631;SDS011;65526;48.578;-4.520;2023-06-22T06:52:47;20.98;;;10.02;;
76631;SDS011;65526;48.578;-4.520;2023-06-22T06:55:15;19.45;;;10.93;;
76631;SDS011;65526;48.578;-4.520;2023-06-22T06:57:42;22.92;;;11.65;;
76631;SDS011;65526;48.578;-4.520;2023-06-22T07:00:10;20.63;;;9.60;;
76631;SDS011;65526;48.578;-4.520;2023-06-22T07:02:39;24.15;;;11.73;;
76631;SDS011;65526;48.578;-4.520;2023-06-22T07:05:07;26.45;;;11.60;;
76631;SDS011;65526;48.578;-4.520;2023-06-22T07:07:34;20.52;;;9.73;;
76631;SDS011;65526;48.578;-4.520;2023-06-22T07:10:01;22.67;;;10.60;;
76631;SDS011;65526;48.578;-4.520;2023-06-22T07:12:28;17.70;;;8.52;;
76631;SDS011;65526;48.578;-4.520;2023-06-22T07:15:00;10.98;;;6.25;;
76631;SDS011;65526;48.578;-4.520;2023-06-22T07:17:31;11.60;;;6.78;;
76631;SDS011;65526;48.578;-4.520;2023-06-22T07:19:57;12.70;;;6.32;;
76631;SDS011;65526;48.578;-4.520;2023-06-22T07:22:24;9.68;;;5.45;;
76631;SDS011;65526;48.578;-4.520;2023-06-22T07:24:50;8.75;;;4.43;;
76631;SDS011;65526;48.578;-4.520;2023-06-22T07:27:17;9.75;;;4.82;;
76631;SDS011;65526;48.578;-4.520;2023-06-22T07:29:45;5.78;;;3.92;;
76631;SDS011;65526;48.578;-4.520;2023-06-22T07:32:11;6.78;;;3.88;;
76631;SDS011;65526;48.578;-4.520;2023-06-22T07:34:38;6.05;;;3.83;;
76631;SDS011;65526;48.578;-4.520;2023-06-22T07:37:04;6.10;;;3.67;;
76631;SDS011;65526;48.578;-4.520;2023-06-22T07:39:31;7.85;;;3.80;;
76631;SDS011;65526;48.578;-4.520;2023-06-22T07:41:57;5.32;;;3.50;;
76631;SDS011;65526;48.578;-4.520;2023-06-22T07:44:24;5.47;;;3.70;;
76631;SDS011;65526;48.578;-4.520;2023-06-22T07:49:27;4.30;;;3.08;;
76631;SDS011;65526;48.578;-4.520;2023-06-22T07:52:00;4.03;;;2.88;;
76631;SDS011;65526;48.578;-4.520;2023-06-22T08:03:08;5.65;;;3.03;;
76631;SDS011;65526;48.578;-4.520;2023-06-22T08:05:35;3.55;;;2.85;;
76631;SDS011;65526;48.578;-4.520;2023-06-22T08:10:57;5.72;;;3.53;;
76631;SDS011;65526;48.578;-4.520;2023-06-22T08:16:42;5.75;;;3.30;;
76631;SDS011;65526;48.578;-4.520;2023-06-22T08:19:12;5.35;;;3.55;;
76631;SDS011;65526;48.578;-4.520;2023-06-22T08:49:06;3.95;;;3.10;;
76631;SDS011;65526;48.578;-4.520;2023-06-22T08:57:48;5.10;;;3.70;;
76631;SDS011;65526;48.578;-4.520;2023-06-22T09:33:42;4.40;;;3.05;;
76631;SDS011;65526;48.578;-4.520;2023-06-22T09:42:28;4.72;;;3.03;;
76631;SDS011;65526;48.578;-4.520;2023-06-22T09:47:54;6.53;;;3.28;;
76631;SDS011;65526;48.578;-4.520;2023-06-22T09:53:16;3.33;;;2.42;;
76631;SDS011;65526;48.578;-4.520;2023-06-22T09:55:56;2.83;;;2.58;;
76631;SDS011;65526;48.578;-4.520;2023-06-22T10:03:41;7.75;;;3.30;;
76631;SDS011;65526;48.578;-4.520;2023-06-22T10:06:17;2.75;;;2.33;;
76631;SDS011;65526;48.578;-4.520;2023-06-22T10:08:43;3.65;;;2.60;;
76631;SDS011;65526;48.578;-4.520;2023-06-22T10:11:28;3.00;;;2.22;;
76631;SDS011;65526;48.578;-4.520;2023-06-22T10:13:56;3.13;;;2.25;;
76631;SDS011;65526;48.578;-4.520;2023-06-22T10:16:24;3.40;;;2.40;;
76631;SDS011;65526;48.578;-4.520;2023-06-22T10:18:56;3.95;;;2.88;;
76631;SDS011;65526;48.578;-4.520;2023-06-22T10:24:10;3.53;;;2.92;;
76631;SDS011;65526;48.578;-4.520;2023-06-22T10:26:36;4.15;;;3.17;;
76631;SDS011;65526;48.578;-4.520;2023-06-22T10:29:04;7.60;;;3.10;;
76631;SDS011;65526;48.578;-4.520;2023-06-22T10:31:31;4.40;;;2.67;;
76631;SDS011;65526;48.578;-4.520;2023-06-22T10:33:57;6.30;;;3.78;;
76631;SDS011;65526;48.578;-4.520;2023-06-22T10:36:24;4.32;;;3.00;;
76631;SDS011;65526;48.578;-4.520;2023-06-22T10:39:02;3.92;;;2.53;;
76631;SDS011;65526;48.578;-4.520;2023-06-22T10:41:35;3.58;;;2.53;;
76631;SDS011;65526;48.578;-4.520;2023-06-22T10:44:02;3.30;;;2.53;;
76631;SDS011;65526;48.578;-4.520;2023-06-22T10:46:28;3.97;;;3.05;;
76631;SDS011;65526;48.578;-4.520;2023-06-22T10:51:30;4.40;;;3.00;;
76631;SDS011;65526;48.578;-4.520;2023-06-22T10:53:58;2.92;;;2.53;;
76631;SDS011;65526;48.578;-4.520;2023-06-22T10:56:24;3.63;;;2.22;;
76631;SDS011;65526;48.578;-4.520;2023-06-22T11:01:26;3.72;;;2.45;;
76631;SDS011;65526;48.578;-4.520;2023-06-22T11:03:54;4.15;;;2.80;;
76631;SDS011;65526;48.578;-4.520;2023-06-22T11:06:20;3.88;;;2.80;;
76631;SDS011;65526;48.578;-4.520;2023-06-22T11:08:46;3.35;;;2.42;;
76631;SDS011;65526;48.578;-4.520;2023-06-22T11:11:13;3.30;;;2.28;;
76631;SDS011;65526;48.578;-4.520;2023-06-22T11:13:45;5.05;;;2.03;;
76631;SDS011;65526;48.578;-4.520;2023-06-22T11:16:12;4.50;;;2.55;;
76631;SDS011;65526;48.578;-4.520;2023-06-22T11:18:41;3.45;;;2.28;;
76631;SDS011;65526;48.578;-4.520;2023-06-22T11:21:08;3.00;;;2.30;;
76631;SDS011;65526;48.578;-4.520;2023-06-22T11:23:34;4.85;;;2.50;;
76631;SDS011;65526;48.578;-4.520;2023-06-22T11:26:00;3.53;;;2.80;;
76631;SDS011;65526;48.578;-4.520;2023-06-22T11:28:27;3.58;;;2.92;;
76631;SDS011;65526;48.578;-4.520;2023-06-22T11:30:53;3.47;;;2.00;;
76631;SDS011;65526;48.578;-4.520;2023-06-22T11:33:20;3.42;;;2.95;;
76631;SDS011;65526;48.578;-4.520;2023-06-22T11:35:56;3.55;;;2.33;;
76631;SDS011;65526;48.578;-4.520;2023-06-22T11:38:23;4.53;;;2.88;;
76631;SDS011;65526;48.578;-4.520;2023-06-22T11:40:49;4.40;;;3.53;;
76631;SDS011;65526;48.578;-4.520;2023-06-22T11:43:15;4.40;;;3.25;;
76631;SDS011;65526;48.578;-4.520;2023-06-22T11:45:42;3.03;;;2.72;;
76631;SDS011;65526;48.578;-4.520;2023-06-22T11:48:08;4.38;;;2.70;;
76631;SDS011;65526;48.578;-4.520;2023-06-22T11:50:34;5.75;;;2.75;;
76631;SDS011;65526;48.578;-4.520;2023-06-22T11:53:02;2.63;;;2.42;;
76631;SDS011;65526;48.578;-4.520;2023-06-22T11:55:29;2.60;;;2.33;;
76631;SDS011;65526;48.578;-4.520;2023-06-22T11:57:56;3.63;;;2.30;;
76631;SDS011;65526;48.578;-4.520;2023-06-22T12:00:26;3.10;;;2.40;;
76631;SDS011;65526;48.578;-4.520;2023-06-22T12:02:52;3.80;;;3.05;;
76631;SDS011;65526;48.578;-4.520;2023-06-22T12:05:19;3.33;;;2.30;;
76631;SDS011;65526;48.578;-4.520;2023-06-22T12:07:50;4.60;;;2.78;;
76631;SDS011;65526;48.578;-4.520;2023-06-22T12:10:18;5.40;;;2.15;;
76631;SDS011;65526;48.578;-4.520;2023-06-22T12:12:45;3.67;;;2.20;;
76631;SDS011;65526;48.578;-4.520;2023-06-22T12:15:11;4.03;;;2.35;;
76631;SDS011;65526;48.578;-4.520;2023-06-22T12:17:38;2.60;;;1.95;;
76631;SDS011;65526;48.578;-4.520;2023-06-22T12:20:05;3.72;;;2.17;;
76631;SDS011;65526;48.578;-4.520;2023-06-22T12:22:32;4.32;;;2.72;;
76631;SDS011;65526;48.578;-4.520;2023-06-22T12:24:59;4.55;;;2.80;;
76631;SDS011;65526;48.578;-4.520;2023-06-22T12:27:26;4.60;;;2.53;;
76631;SDS011;65526;48.578;-4.520;2023-06-22T12:29:53;2.88;;;2.33;;
76631;SDS011;65526;48.578;-4.520;2023-06-22T12:32:19;3.15;;;2.08;;
76631;SDS011;65526;48.578;-4.520;2023-06-22T12:34:46;3.22;;;2.10;;
76631;SDS011;65526;48.578;-4.520;2023-06-22T12:37:12;2.60;;;2.40;;
76631;SDS011;65526;48.578;-4.520;2023-06-22T12:39:40;3.22;;;2.15;;
76631;SDS011;65526;48.578;-4.520;2023-06-22T12:42:07;2.75;;;1.70;;
76631;SDS011;65526;48.578;-4.520;2023-06-22T12:44:35;2.45;;;1.70;;
76631;SDS011;65526;48.578;-4.520;2023-06-22T12:47:01;4.57;;;2.88;;
76631;SDS011;65526;48.578;-4.520;2023-06-22T12:49:28;3.47;;;2.45;;
76631;SDS011;65526;48.578;-4.520;2023-06-22T12:51:54;3.08;;;2.67;;
76631;SDS011;65526;48.578;-4.520;2023-06-22T12:54:20;3.97;;;2.65;;
76631;SDS011;65526;48.578;-4.520;2023-06-22T12:56:47;3.47;;;2.67;;
76631;SDS011;65526;48.578;-4.520;2023-06-22T12:59:13;2.72;;;2.53;;
76631;SDS011;65526;48.578;-4.520;2023-06-22T13:01:39;4.65;;;3.00;;
76631;SDS011;65526;48.578;-4.520;2023-06-22T13:04:06;6.95;;;3.00;;
76631;SDS011;65526;48.578;-4.520;2023-06-22T13:06:32;3.88;;;2.30;;
76631;SDS011;65526;48.578;-4.520;2023-06-22T13:08:58;2.55;;;2.35;;
76631;SDS011;65526;48.578;-4.520;2023-06-22T13:11:25;4.65;;;2.60;;
76631;SDS011;65526;48.578;-4.520;2023-06-22T13:13:51;3.13;;;2.58;;
76631;SDS011;65526;48.578;-4.520;2023-06-22T13:16:17;3.25;;;2.58;;
76631;SDS011;65526;48.578;-4.520;2023-06-22T13:18:44;3.92;;;3.15;;
76631;SDS011;65526;48.578;-4.520;2023-06-22T13:21:10;3.10;;;2.80;;
76631;SDS011;65526;48.578;-4.520;2023-06-22T13:23:36;2.78;;;2.50;;
76631;SDS011;65526;48.578;-4.520;2023-06-22T13:26:03;3.53;;;2.90;;
76631;SDS011;65526;48.578;-4.520;2023-06-22T13:28:29;3.63;;;2.53;;
76631;SDS011;65526;48.578;-4.520;2023-06-22T13:30:56;3.45;;;2.75;;
76631;SDS011;65526;48.578;-4.520;2023-06-22T13:33:22;6.55;;;3.00;;
76631;SDS011;65526;48.578;-4.520;2023-06-22T13:35:48;2.65;;;2.30;;
76631;SDS011;65526;48.578;-4.520;2023-06-22T13:38:15;2.38;;;2.17;;
76631;SDS011;65526;48.578;-4.520;2023-06-22T13:40:43;3.67;;;2.40;;
76631;SDS011;65526;48.578;-4.520;2023-06-22T13:43:10;2.95;;;2.20;;
76631;SDS011;65526;48.578;-4.520;2023-06-22T13:45:36;2.75;;;2.00;;
76631;SDS011;65526;48.578;-4.520;2023-06-22T13:48:03;3.00;;;2.28;;
76631;SDS011;65526;48.578;-4.520;2023-06-22T13:50:29;4.63;;;2.50;;
76631;SDS011;65526;48.578;-4.520;2023-06-22T13:52:55;3.70;;;2.60;;
76631;SDS011;65526;48.578;-4.520;2023-06-22T13:55:22;2.80;;;2.50;;
76631;SDS011;65526;48.578;-4.520;2023-06-22T13:57:49;3.47;;;1.98;;
76631;SDS011;65526;48.578;-4.520;2023-06-22T14:00:17;3.55;;;2.72;;
76631;SDS011;65526;48.578;-4.520;2023-06-22T14:02:43;2.55;;;2.05;;
76631;SDS011;65526;48.578;-4.520;2023-06-22T14:05:10;3.47;;;2.40;;
76631;SDS011;65526;48.578;-4.520;2023-06-22T14:07:37;3.75;;;2.25;;
76631;SDS011;65526;48.578;-4.520;2023-06-22T14:10:03;3.33;;;3.03;;
76631;SDS011;65526;48.578;-4.520;2023-06-22T14:12:30;2.63;;;2.35;;
76631;SDS011;65526;48.578;-4.520;2023-06-22T14:14:56;2.80;;;2.25;;
76631;SDS011;65526;48.578;-4.520;2023-06-22T14:17:23;4.95;;;2.72;;
76631;SDS011;65526;48.578;-4.520;2023-06-22T14:19:52;3.80;;;2.67;;
76631;SDS011;65526;48.578;-4.520;2023-06-22T14:22:19;5.43;;;2.38;;
76631;SDS011;65526;48.578;-4.520;2023-06-22T14:24:46;3.88;;;2.08;;
76631;SDS011;65526;48.578;-4.520;2023-06-22T14:27:13;3.25;;;2.17;;
76631;SDS011;65526;48.578;-4.520;2023-06-22T14:29:40;5.35;;;2.60;;
76631;SDS011;65526;48.578;-4.520;2023-06-22T14:32:07;2.72;;;2.17;;
76631;SDS011;65526;48.578;-4.520;2023-06-22T14:34:34;3.47;;;2.47;;
76631;SDS011;65526;48.578;-4.520;2023-06-22T14:37:08;3.42;;;2.08;;
76631;SDS011;65526;48.578;-4.520;2023-06-22T14:39:35;2.45;;;2.20;;
76631;SDS011;65526;48.578;-4.520;2023-06-22T14:42:02;2.42;;;1.77;;
76631;SDS011;65526;48.578;-4.520;2023-06-22T14:44:31;3.42;;;2.05;;
76631;SDS011;65526;48.578;-4.520;2023-06-22T14:46:58;3.78;;;2.08;;
76631;SDS011;65526;48.578;-4.520;2023-06-22T14:49:24;3.13;;;2.30;;
76631;SDS011;65526;48.578;-4.520;2023-06-22T14:51:50;4.35;;;2.13;;
76631;SDS011;65526;48.578;-4.520;2023-06-22T14:54:17;1.85;;;1.55;;
76631;SDS011;65526;48.578;-4.520;2023-06-22T14:56:43;3.17;;;1.80;;
76631;SDS011;65526;48.578;-4.520;2023-06-22T14:59:10;1.90;;;1.65;;
76631;SDS011;65526;48.578;-4.520;2023-06-22T15:01:36;5.88;;;2.05;;
76631;SDS011;65526;48.578;-4.520;2023-06-22T15:04:02;2.75;;;1.98;;
76631;SDS011;65526;48.578;-4.520;2023-06-22T15:06:29;2.92;;;1.92;;
76631;SDS011;65526;48.578;-4.520;2023-06-22T15:08:55;3.63;;;2.00;;
76631;SDS011;65526;48.578;-4.520;2023-06-22T15:11:22;3.15;;;1.58;;
76631;SDS011;65526;48.578;-4.520;2023-06-22T15:13:48;4.75;;;1.63;;
76631;SDS011;65526;48.578;-4.520;2023-06-22T15:16:14;4.32;;;1.67;;
76631;SDS011;65526;48.578;-4.520;2023-06-22T15:18:41;3.47;;;1.85;;
76631;SDS011;65526;48.578;-4.520;2023-06-22T15:21:07;3.50;;;2.10;;
76631;SDS011;65526;48.578;-4.520;2023-06-22T15:23:34;2.38;;;1.80;;
76631;SDS011;65526;48.578;-4.520;2023-06-22T15:26:01;2.10;;;1.90;;
76631;SDS011;65526;48.578;-4.520;2023-06-22T15:28:30;3.22;;;1.80;;
76631;SDS011;65526;48.578;-4.520;2023-06-22T15:30:58;2.70;;;1.52;;
76631;SDS011;65526;48.578;-4.520;2023-06-22T15:33:25;2.40;;;2.22;;
76631;SDS011;65526;48.578;-4.520;2023-06-22T15:35:51;2.72;;;1.60;;
76631;SDS011;65526;48.578;-4.520;2023-06-22T15:38:18;3.80;;;1.73;;
76631;SDS011;65526;48.578;-4.520;2023-06-22T15:40:44;2.45;;;1.92;;
76631;SDS011;65526;48.578;-4.520;2023-06-22T15:43:11;1.88;;;1.65;;
76631;SDS011;65526;48.578;-4.520;2023-06-22T15:45:40;3.20;;;2.05;;
76631;SDS011;65526;48.578;-4.520;2023-06-22T15:48:07;1.80;;;1.70;;
76631;SDS011;65526;48.578;-4.520;2023-06-22T15:50:33;4.03;;;1.80;;
76631;SDS011;65526;48.578;-4.520;2023-06-22T15:52:59;4.68;;;2.42;;
76631;SDS011;65526;48.578;-4.520;2023-06-22T15:55:26;2.10;;;1.60;;
76631;SDS011;65526;48.578;-4.520;2023-06-22T15:57:52;2.28;;;2.00;;
76631;SDS011;65526;48.578;-4.520;2023-06-22T16:00:19;2.53;;;2.33;;
76631;SDS011;65526;48.578;-4.520;2023-06-22T16:02:46;1.98;;;1.85;;
76631;SDS011;65526;48.578;-4.520;2023-06-22T16:05:13;2.72;;;2.03;;
76631;SDS011;65526;48.578;-4.520;2023-06-22T16:07:40;2.78;;;1.92;;
76631;SDS011;65526;48.578;-4.520;2023-06-22T16:10:06;3.20;;;2.47;;
76631;SDS011;65526;48.578;-4.520;2023-06-22T16:12:33;4.22;;;1.92;;
76631;SDS011;65526;48.578;-4.520;2023-06-22T16:15:01;2.17;;;1.70;;
76631;SDS011;65526;48.578;-4.520;2023-06-22T16:17:29;3.50;;;2.15;;
76631;SDS011;65526;48.578;-4.520;2023-06-22T16:19:55;3.05;;;1.88;;
76631;SDS011;65526;48.578;-4.520;2023-06-22T16:22:24;2.20;;;1.98;;
76631;SDS011;65526;48.578;-4.520;2023-06-22T16:24:50;2.67;;;1.95;;
76631;SDS011;65526;48.578;-4.520;2023-06-22T16:27:17;2.25;;;1.73;;
76631;SDS011;65526;48.578;-4.520;2023-06-22T16:29:44;2.58;;;2.30;;
76631;SDS011;65526;48.578;-4.520;2023-06-22T16:32:10;2.40;;;1.90;;
76631;SDS011;65526;48.578;-4.520;2023-06-22T16:34:37;2.85;;;1.90;;